createdAt,value
2019-04-04T00:00:10.756Z,97945.00
2019-04-04T00:02:40.075Z,97944.00
2019-04-04T00:05:09.545Z,97927.00
2019-04-04T00:07:38.894Z,97937.00
2019-04-04T00:10:09.466Z,97945.00
2019-04-04T00:12:39.546Z,97931.00
2019-04-04T00:15:09.088Z,97947.00
2019-04-04T00:17:38.432Z,97959.00
2019-04-04T00:20:07.609Z,97959.00
2019-04-04T00:22:36.692Z,97955.00
2019-04-04T00:25:09.615Z,97963.00
2019-04-04T00:27:37.657Z,97961.00
2019-04-04T00:30:07.824Z,97961.00
2019-04-04T00:32:37.187Z,97959.00
2019-04-04T00:35:06.700Z,97971.00
2019-04-04T00:37:36.490Z,97962.00
2019-04-04T00:40:06.887Z,97972.00
2019-04-04T00:42:35.989Z,97976.00
2019-04-04T00:45:07.022Z,97975.00
2019-04-04T00:47:36.187Z,97975.00
2019-04-04T00:50:07.386Z,97964.00
2019-04-04T00:52:36.718Z,97965.00
2019-04-04T00:55:08.227Z,97969.00
2019-04-04T00:57:37.589Z,97964.00
2019-04-04T01:00:08.786Z,97967.00
2019-04-04T01:02:38.148Z,97963.00
2019-04-04T01:05:07.955Z,97965.00
2019-04-04T01:07:37.293Z,97964.00
2019-04-04T01:10:07.420Z,97964.00
2019-04-04T01:12:36.514Z,97967.00
2019-04-04T01:15:07.389Z,97978.00
2019-04-04T01:17:36.444Z,97973.00
2019-04-04T01:20:08.604Z,97974.00
2019-04-04T01:22:37.940Z,97970.00
2019-04-04T01:25:07.680Z,97963.00
2019-04-04T01:27:37.536Z,97964.00
2019-04-04T01:30:07.814Z,97974.00
2019-04-04T01:32:36.921Z,97979.00
2019-04-04T01:35:09.244Z,97979.00
2019-04-04T01:37:38.573Z,97972.00
2019-04-04T01:40:08.313Z,97973.00
2019-04-04T01:42:38.775Z,97980.00
2019-04-04T01:45:08.539Z,97989.00
2019-04-04T01:47:37.905Z,97993.00
2019-04-04T01:50:07.049Z,97999.00
2019-04-04T01:52:36.382Z,97995.00
2019-04-04T01:55:06.130Z,98002.00
2019-04-04T01:57:38.615Z,98000.00
2019-04-04T02:00:11.006Z,97993.00
2019-04-04T02:02:40.363Z,97987.00
2019-04-04T02:05:09.460Z,97995.00
2019-04-04T02:07:38.793Z,97988.00
2019-04-04T02:10:08.110Z,97998.00
2019-04-04T02:12:39.256Z,97993.00
2019-04-04T02:15:09.095Z,97982.00
2019-04-04T02:17:38.230Z,97982.00
2019-04-04T02:20:08.679Z,97979.00
2019-04-04T02:22:37.746Z,97988.00
2019-04-04T02:25:07.501Z,97986.00
2019-04-04T02:27:37.925Z,97982.00
2019-04-04T02:30:14.622Z,97992.00
2019-04-04T02:32:40.455Z,97995.00
2019-04-04T02:35:11.547Z,97998.00
2019-04-04T02:37:41.110Z,97998.00
2019-04-04T02:40:11.027Z,98008.00
2019-04-04T02:42:40.698Z,98013.00
2019-04-04T02:45:09.853Z,98027.00
2019-04-04T02:47:39.212Z,98024.00
2019-04-04T02:50:08.989Z,98022.00
2019-04-04T02:52:38.354Z,98014.00
2019-04-04T02:55:07.851Z,98005.00
2019-04-04T02:57:41.165Z,98002.00
2019-04-04T03:00:07.998Z,98001.00
2019-04-04T03:02:37.157Z,98007.00
2019-04-04T03:05:06.303Z,98004.00
2019-04-04T03:07:35.668Z,98003.00
2019-04-04T03:10:07.049Z,98001.00
2019-04-04T03:12:36.475Z,97990.00
2019-04-04T03:15:09.238Z,97991.00
2019-04-04T03:17:38.770Z,97985.00
2019-04-04T03:20:08.173Z,97982.00
2019-04-04T03:22:37.265Z,97985.00
2019-04-04T03:25:07.097Z,97988.00
2019-04-04T03:27:36.499Z,97993.00
2019-04-04T03:30:13.184Z,97989.00
2019-04-04T03:32:37.791Z,97973.00
2019-04-04T03:35:08.193Z,97961.00
2019-04-04T03:37:40.431Z,97967.00
2019-04-04T03:40:08.718Z,97972.00
2019-04-04T03:42:37.867Z,97982.00
2019-04-04T03:45:07.081Z,97977.00
2019-04-04T03:47:36.187Z,97977.00
2019-04-04T03:50:07.318Z,97983.00
2019-04-04T03:52:36.643Z,97976.00
2019-04-04T03:55:08.476Z,97974.00
2019-04-04T03:57:37.816Z,97968.00
2019-04-04T04:00:09.263Z,97966.00
2019-04-04T04:02:38.324Z,97969.00
2019-04-04T04:05:34.103Z,97974.00
2019-04-04T04:08:00.128Z,97989.00
2019-04-04T04:10:32.241Z,97990.00
2019-04-04T04:13:00.302Z,98000.00
2019-04-04T04:15:30.592Z,97996.00
2019-04-04T04:17:59.774Z,97993.00
2019-04-04T04:20:28.879Z,97994.00
2019-04-04T04:22:58.561Z,97984.00
2019-04-04T04:25:27.913Z,97984.00
2019-04-04T04:27:57.022Z,97990.00
2019-04-04T04:30:26.351Z,97981.00
2019-04-04T04:32:57.107Z,97975.00
2019-04-04T04:35:26.835Z,97975.00
2019-04-04T04:37:56.187Z,97980.00
2019-04-04T04:40:25.424Z,97987.00
2019-04-04T04:42:54.547Z,97986.00
2019-04-04T04:45:23.722Z,97990.00
2019-04-04T04:47:55.885Z,97985.00
2019-04-04T04:50:24.276Z,97986.00
2019-04-04T04:52:53.382Z,97989.00
2019-04-04T04:55:26.654Z,97980.00
2019-04-04T04:57:56.042Z,97979.00
2019-04-04T05:00:27.406Z,97976.00
2019-04-04T05:02:55.295Z,97983.00
2019-04-04T05:05:24.405Z,97984.00
2019-04-04T05:07:54.821Z,97970.00
2019-04-04T05:10:24.188Z,97955.00
2019-04-04T05:12:53.788Z,97961.00
2019-04-04T05:15:22.935Z,97959.00
2019-04-04T05:17:52.069Z,97970.00
2019-04-04T05:20:23.157Z,97972.00
2019-04-04T05:22:52.535Z,97982.00
2019-04-04T05:25:21.882Z,97970.00
2019-04-04T05:27:51.217Z,97966.00
2019-04-04T05:30:20.637Z,97964.00
2019-04-04T05:32:50.010Z,97952.00
2019-04-04T05:35:20.864Z,97965.00
2019-04-04T05:37:50.219Z,97973.00
2019-04-04T05:40:23.233Z,97962.00
2019-04-04T05:42:50.597Z,97978.00
2019-04-04T05:45:19.798Z,97973.00
2019-04-04T05:47:49.192Z,97969.00
2019-04-04T05:50:18.295Z,97964.00
2019-04-04T05:52:47.389Z,97974.00
2019-04-04T05:55:16.472Z,97986.00
2019-04-04T05:57:45.970Z,97973.00
2019-04-04T06:00:15.915Z,97986.00
2019-04-04T06:02:45.010Z,97986.00
2019-04-04T06:05:14.717Z,97981.00
2019-04-04T06:07:44.085Z,97986.00
2019-04-04T06:10:13.361Z,97981.00
2019-04-04T06:12:42.742Z,97985.00
2019-04-04T06:15:11.920Z,97968.00
2019-04-04T06:17:41.063Z,97973.00
2019-04-04T06:20:10.465Z,97974.00
2019-04-04T06:22:39.831Z,97977.00
2019-04-04T06:25:09.394Z,97966.00
2019-04-04T06:27:40.288Z,97960.00
2019-04-04T06:30:09.602Z,97958.00
2019-04-04T06:32:39.215Z,97963.00
2019-04-04T06:35:08.463Z,97957.00
2019-04-04T06:37:38.817Z,97943.00
2019-04-04T06:40:09.038Z,97949.00
2019-04-04T06:42:38.395Z,97947.00
2019-04-04T06:45:07.544Z,97964.00
2019-04-04T06:47:36.669Z,97963.00
2019-04-04T06:50:08.184Z,97973.00
2019-04-04T06:52:37.804Z,97972.00
2019-04-04T06:55:07.654Z,97977.00
2019-04-04T06:57:37.582Z,97976.00
2019-04-04T07:00:08.542Z,97975.00
2019-04-04T07:02:38.135Z,97972.00
2019-04-04T07:05:10.678Z,97975.00
2019-04-04T07:07:42.980Z,97974.00
2019-04-04T07:10:11.543Z,97957.00
2019-04-04T07:12:40.911Z,97952.00
2019-04-04T07:15:15.579Z,97955.00
2019-04-04T07:17:42.716Z,97954.00
2019-04-04T07:20:12.412Z,97945.00
2019-04-04T07:22:42.049Z,97958.00
2019-04-04T07:25:12.312Z,97951.00
2019-04-04T07:27:41.878Z,97962.00
2019-04-04T07:30:11.706Z,97951.00
2019-04-04T07:32:41.591Z,97946.00
2019-04-04T07:35:10.877Z,97951.00
2019-04-04T07:37:40.214Z,97954.00
2019-04-04T07:40:09.659Z,97959.00
2019-04-04T07:42:40.339Z,97958.00
2019-04-04T07:45:09.759Z,97954.00
2019-04-04T07:47:38.862Z,97944.00
2019-04-04T07:50:08.541Z,97949.00
2019-04-04T07:52:37.887Z,97951.00
2019-04-04T07:55:10.010Z,97954.00
2019-04-04T07:57:38.634Z,97956.00
2019-04-04T08:00:07.821Z,97955.00
2019-04-04T08:02:37.161Z,97956.00
2019-04-04T08:05:08.819Z,97955.00
2019-04-04T08:07:38.169Z,97955.00
2019-04-04T08:10:19.608Z,97953.00
2019-04-04T08:12:38.337Z,97941.00
2019-04-04T08:15:08.514Z,97944.00
2019-04-04T08:17:37.638Z,97938.00
2019-04-04T08:20:07.750Z,97937.00
2019-04-04T08:22:39.540Z,97940.00
2019-04-04T08:25:08.213Z,97942.00
2019-04-04T08:27:37.554Z,97931.00
2019-04-04T08:30:08.340Z,97934.00
2019-04-04T08:32:37.675Z,97935.00
2019-04-04T08:35:08.571Z,97930.00
2019-04-04T08:37:37.912Z,97934.00
2019-04-04T08:40:07.910Z,97930.00
2019-04-04T08:42:37.281Z,97935.00
2019-04-04T08:45:07.762Z,97926.00
2019-04-04T08:47:37.693Z,97926.00
2019-04-04T08:50:07.230Z,97917.00
2019-04-04T08:52:36.472Z,97907.00
2019-04-04T08:55:07.817Z,97916.00
2019-04-04T08:57:36.918Z,97917.00
2019-04-04T09:00:09.511Z,97907.00
2019-04-04T09:02:38.791Z,97906.00
2019-04-04T09:05:12.403Z,97910.00
2019-04-04T09:07:39.564Z,97904.00
2019-04-04T09:10:09.791Z,97919.00
2019-04-04T09:12:38.861Z,97912.00
2019-04-04T09:15:08.559Z,97906.00
2019-04-04T09:17:37.946Z,97896.00
2019-04-04T09:20:09.500Z,97906.00
2019-04-04T09:22:40.768Z,97900.00
2019-04-04T09:25:11.042Z,97904.00
2019-04-04T09:27:43.118Z,97902.00
2019-04-04T09:30:15.327Z,97909.00
2019-04-04T09:32:44.693Z,97902.00
2019-04-04T09:35:14.952Z,97902.00
2019-04-04T09:37:44.862Z,97901.00
2019-04-04T09:40:13.956Z,97895.00
2019-04-04T09:42:46.276Z,97899.00
2019-04-04T09:45:15.561Z,97887.00
2019-04-04T09:47:44.692Z,97898.00
2019-04-04T09:50:13.889Z,97893.00
2019-04-04T09:52:43.034Z,97895.00
2019-04-04T09:55:12.150Z,97903.00
2019-04-04T09:57:41.492Z,97905.00
2019-04-04T10:00:16.900Z,97913.00
2019-04-04T10:02:46.069Z,97901.00
2019-04-04T10:05:15.905Z,97908.00
2019-04-04T10:07:45.251Z,97906.00
2019-04-04T10:10:15.981Z,97907.00
2019-04-04T10:12:45.354Z,97904.00
2019-04-04T10:15:15.392Z,97895.00
2019-04-04T10:17:44.958Z,97899.00
2019-04-04T10:20:14.483Z,97900.00
2019-04-04T10:22:43.791Z,97890.00
2019-04-04T10:25:13.058Z,97885.00
2019-04-04T10:27:42.589Z,97880.00
2019-04-04T10:30:12.296Z,97870.00
2019-04-04T10:32:41.711Z,97865.00
2019-04-04T10:35:10.998Z,97865.00
2019-04-04T10:37:40.402Z,97879.00
2019-04-04T10:40:10.045Z,97870.00
2019-04-04T10:42:39.219Z,97866.00
2019-04-04T10:45:08.558Z,97877.00
2019-04-04T10:47:37.664Z,97863.00
2019-04-04T10:50:07.829Z,97864.00
2019-04-04T10:52:38.245Z,97867.00
2019-04-04T10:55:07.715Z,97860.00
2019-04-04T10:57:37.127Z,97858.00
2019-04-04T11:00:10.507Z,97860.00
2019-04-04T11:02:39.609Z,97863.00
2019-04-04T11:05:08.952Z,97860.00
2019-04-04T11:07:38.336Z,97864.00
2019-04-04T11:10:07.769Z,97870.00
2019-04-04T11:12:37.153Z,97863.00
2019-04-04T11:15:07.714Z,97879.00
2019-04-04T11:17:37.129Z,97861.00
2019-04-04T11:20:07.065Z,97868.00
2019-04-04T11:22:36.430Z,97876.00
2019-04-04T11:25:06.755Z,97874.00
2019-04-04T11:27:35.928Z,97890.00
2019-04-04T11:30:08.269Z,97895.00
2019-04-04T11:32:37.611Z,97890.00
2019-04-04T11:35:07.256Z,97884.00
2019-04-04T11:37:36.549Z,97881.00
2019-04-04T11:40:11.269Z,97887.00
2019-04-04T11:42:40.360Z,97878.00
2019-04-04T11:45:09.487Z,97875.00
2019-04-04T11:47:38.620Z,97862.00
2019-04-04T11:50:08.482Z,97860.00
2019-04-04T11:52:37.848Z,97861.00
2019-04-04T11:55:07.157Z,97870.00
2019-04-04T11:57:36.552Z,97858.00
2019-04-04T12:00:10.594Z,97864.00
2019-04-04T12:02:40.071Z,97861.00
2019-04-04T12:05:09.681Z,97871.00
2019-04-04T12:07:38.941Z,97863.00
2019-04-04T12:10:08.322Z,97865.00
2019-04-04T12:12:37.647Z,97866.00
2019-04-04T12:15:08.856Z,97859.00
2019-04-04T12:17:37.936Z,97853.00
2019-04-04T12:20:07.809Z,97853.00
2019-04-04T12:22:36.950Z,97854.00
2019-04-04T12:25:07.423Z,97852.00
2019-04-04T12:27:36.791Z,97855.00
2019-04-04T12:30:10.049Z,97844.00
2019-04-04T12:32:39.162Z,97844.00
2019-04-04T12:35:08.582Z,97849.00
2019-04-04T12:37:38.229Z,97843.00
2019-04-04T12:40:19.310Z,97833.00
2019-04-04T12:42:38.453Z,97830.00
2019-04-04T12:45:09.135Z,97819.00
2019-04-04T12:47:38.350Z,97826.00
2019-04-04T12:50:07.469Z,97817.00
2019-04-04T12:52:37.010Z,97811.00
2019-04-04T12:55:07.424Z,97807.00
2019-04-04T12:57:36.808Z,97808.00
2019-04-04T13:00:07.841Z,97799.00
2019-04-04T13:02:37.272Z,97806.00
2019-04-04T13:05:10.548Z,97801.00
2019-04-04T13:07:39.679Z,97794.00
2019-04-04T13:10:11.725Z,97798.00
2019-04-04T13:12:40.524Z,97789.00
2019-04-04T13:15:10.620Z,97782.00
2019-04-04T13:17:39.982Z,97792.00
2019-04-04T13:20:09.863Z,97788.00
2019-04-04T13:22:39.424Z,97776.00
2019-04-04T13:25:08.935Z,97788.00
2019-04-04T13:27:38.343Z,97782.00
2019-04-04T13:30:12.758Z,97791.00
2019-04-04T13:32:42.109Z,97783.00
2019-04-04T13:35:11.307Z,97770.00
2019-04-04T13:37:40.642Z,97768.00
2019-04-04T13:40:10.654Z,97768.00
2019-04-04T13:42:40.014Z,97758.00
2019-04-04T13:45:14.087Z,97755.00
2019-04-04T13:47:43.178Z,97776.00
2019-04-04T13:50:12.897Z,97767.00
2019-04-04T13:52:42.320Z,97771.00
2019-04-04T13:55:11.474Z,97775.00
2019-04-04T13:57:42.189Z,97762.00
2019-04-04T14:00:12.340Z,97779.00
2019-04-04T14:02:44.660Z,97772.00
2019-04-04T14:05:14.748Z,97766.00
2019-04-04T14:07:44.300Z,97767.00
2019-04-04T14:10:17.122Z,97775.00
2019-04-04T14:12:44.977Z,97766.00
2019-04-04T14:15:14.233Z,97757.00
2019-04-04T14:17:44.160Z,97755.00
2019-04-04T14:20:14.239Z,97761.00
2019-04-04T14:22:43.609Z,97760.00
2019-04-04T14:25:12.697Z,97758.00
2019-04-04T14:27:41.801Z,97757.00
2019-04-04T14:30:11.707Z,97756.00
2019-04-04T14:32:41.026Z,97746.00
2019-04-04T14:35:10.674Z,97744.00
2019-04-04T14:37:39.700Z,97735.00
2019-04-04T14:40:09.513Z,97735.00
2019-04-04T14:42:38.620Z,97743.00
2019-04-04T14:45:07.938Z,97739.00
2019-04-04T14:47:37.329Z,97739.00
2019-04-04T14:50:07.633Z,97746.00
2019-04-04T14:52:39.469Z,97747.00
2019-04-04T14:55:08.423Z,97742.00
2019-04-04T14:57:37.796Z,97737.00
2019-04-04T15:00:09.816Z,97750.00
2019-04-04T15:02:38.912Z,97738.00
2019-04-04T15:05:08.589Z,97745.00
2019-04-04T15:07:37.989Z,97746.00
2019-04-04T15:10:07.129Z,97738.00
2019-04-04T15:12:36.582Z,97747.00
2019-04-04T15:15:06.383Z,97737.00
2019-04-04T15:17:35.839Z,97752.00
2019-04-04T15:20:06.911Z,97745.00
2019-04-04T15:22:36.045Z,97748.00
2019-04-04T15:25:05.786Z,97749.00
2019-04-04T15:27:35.456Z,97753.00
2019-04-04T15:30:06.190Z,97759.00
2019-04-04T15:32:35.332Z,97758.00
2019-04-04T15:35:05.760Z,97762.00
2019-04-04T15:37:35.133Z,97761.00
2019-04-04T15:40:06.003Z,97766.00
2019-04-04T15:42:35.596Z,97773.00
2019-04-04T15:45:07.475Z,97779.00
2019-04-04T15:47:36.852Z,97779.00
2019-04-04T15:50:08.675Z,97782.00
2019-04-04T15:52:37.794Z,97785.00
2019-04-04T15:55:07.301Z,97792.00
2019-04-04T15:57:36.466Z,97789.00
2019-04-04T16:00:08.695Z,97802.00
2019-04-04T16:02:37.864Z,97803.00
2019-04-04T16:05:08.831Z,97805.00
2019-04-04T16:07:37.952Z,97806.00
2019-04-04T16:10:10.664Z,97801.00
2019-04-04T16:12:40.053Z,97807.00
2019-04-04T16:15:09.331Z,97815.00
2019-04-04T16:17:38.376Z,97814.00
2019-04-04T16:20:09.530Z,97819.00
2019-04-04T16:22:38.612Z,97820.00
2019-04-04T16:25:07.877Z,97811.00
2019-04-04T16:27:37.272Z,97816.00
2019-04-04T16:30:08.041Z,97819.00
2019-04-04T16:32:37.993Z,97816.00
2019-04-04T16:35:07.156Z,97817.00
2019-04-04T16:37:36.553Z,97822.00
2019-04-04T16:40:10.942Z,97824.00
2019-04-04T16:42:40.393Z,97827.00
2019-04-04T16:45:09.491Z,97831.00
2019-04-04T16:47:38.574Z,97828.00
2019-04-04T16:50:07.940Z,97826.00
2019-04-04T16:52:37.027Z,97834.00
2019-04-04T16:55:11.545Z,97839.00
2019-04-04T16:57:43.318Z,97844.00
2019-04-04T17:00:13.592Z,97840.00
2019-04-04T17:02:42.952Z,97849.00
2019-04-04T17:05:12.899Z,97838.00
2019-04-04T17:07:42.284Z,97843.00
2019-04-04T17:10:11.634Z,97850.00
2019-04-04T17:12:40.983Z,97852.00
2019-04-04T17:15:10.239Z,97859.00
2019-04-04T17:17:39.587Z,97864.00
2019-04-04T17:20:09.229Z,97860.00
2019-04-04T17:22:38.610Z,97878.00
2019-04-04T17:25:08.798Z,97883.00
2019-04-04T17:27:37.826Z,97885.00
2019-04-04T17:30:10.559Z,97881.00
2019-04-04T17:32:39.934Z,97876.00
2019-04-04T17:35:09.908Z,97881.00
2019-04-04T17:37:39.315Z,97900.00
2019-04-04T17:40:08.496Z,97892.00
2019-04-04T17:42:37.596Z,97884.00
2019-04-04T17:45:10.354Z,97892.00
2019-04-04T17:47:40.049Z,97889.00
2019-04-04T17:50:11.317Z,97883.00
2019-04-04T17:52:40.460Z,97883.00
2019-04-04T17:55:10.497Z,97882.00
2019-04-04T17:57:39.818Z,97871.00
2019-04-04T18:00:10.389Z,97882.00
2019-04-04T18:02:39.500Z,97884.00
2019-04-04T18:05:09.989Z,97885.00
2019-04-04T18:07:39.395Z,97885.00
2019-04-04T18:10:09.837Z,97881.00
2019-04-04T18:12:40.423Z,97884.00
2019-04-04T18:15:10.998Z,97885.00
2019-04-04T18:17:40.451Z,97895.00
2019-04-04T18:20:10.971Z,97891.00
2019-04-04T18:22:40.362Z,97898.00
2019-04-04T18:25:10.003Z,97908.00
2019-04-04T18:27:42.412Z,97909.00
2019-04-04T18:30:15.424Z,97902.00
2019-04-04T18:32:44.616Z,97914.00
2019-04-04T18:35:13.906Z,97921.00
2019-04-04T18:37:43.759Z,97921.00
2019-04-04T18:40:13.115Z,97926.00
2019-04-04T18:42:52.636Z,97934.00
2019-04-04T18:45:13.096Z,97955.00
2019-04-04T18:47:42.489Z,97957.00
2019-04-04T18:50:11.960Z,97967.00
2019-04-04T18:52:41.162Z,97970.00
2019-04-04T18:55:19.671Z,97974.00
2019-04-04T18:57:41.919Z,97975.00
2019-04-04T19:00:12.996Z,97974.00
2019-04-04T19:02:42.460Z,97969.00
2019-04-04T19:05:12.310Z,97981.00
2019-04-04T19:07:41.787Z,97967.00
2019-04-04T19:10:11.639Z,97968.00
2019-04-04T19:12:41.182Z,97981.00
2019-04-04T19:15:10.471Z,97980.00
2019-04-04T19:17:39.817Z,97987.00
2019-04-04T19:20:10.202Z,97985.00
2019-04-04T19:22:39.855Z,97988.00
2019-04-04T19:25:09.730Z,98000.00
2019-04-04T19:27:38.837Z,97998.00
2019-04-04T19:30:10.231Z,98002.00
2019-04-04T19:32:39.441Z,98002.00
2019-04-04T19:35:08.768Z,98003.00
2019-04-04T19:37:38.124Z,98009.00
2019-04-04T19:40:09.042Z,98003.00
2019-04-04T19:42:39.009Z,98012.00
2019-04-04T19:45:09.458Z,98023.00
2019-04-04T19:47:38.975Z,98024.00
2019-04-04T19:50:11.650Z,98033.00
2019-04-04T19:52:40.993Z,98024.00
2019-04-04T19:55:10.491Z,98010.00
2019-04-04T19:57:39.873Z,98028.00
2019-04-04T20:00:10.343Z,98025.00
2019-04-04T20:02:39.459Z,98028.00
2019-04-04T20:05:08.800Z,98033.00
2019-04-04T20:07:37.925Z,98031.00
2019-04-04T20:10:07.106Z,98037.00
2019-04-04T20:12:36.468Z,98036.00
2019-04-04T20:15:06.872Z,98036.00
2019-04-04T20:17:36.468Z,98024.00
2019-04-04T20:20:07.105Z,98031.00
2019-04-04T20:22:36.560Z,98038.00
2019-04-04T20:25:06.637Z,98034.00
2019-04-04T20:27:36.009Z,98032.00
2019-04-04T20:30:10.282Z,98033.00
2019-04-04T20:32:39.621Z,98031.00
2019-04-04T20:35:09.341Z,98036.00
2019-04-04T20:37:38.437Z,98036.00
2019-04-04T20:40:08.560Z,98038.00
2019-04-04T20:42:37.894Z,98055.00
2019-04-04T20:45:07.088Z,98056.00
2019-04-04T20:47:36.215Z,98049.00
2019-04-04T20:50:07.797Z,98049.00
2019-04-04T20:52:36.873Z,98051.00
2019-04-04T20:55:07.002Z,98052.00
2019-04-04T20:57:36.374Z,98060.00
2019-04-04T21:00:07.576Z,98071.00
2019-04-04T21:02:36.777Z,98070.00
2019-04-04T21:05:08.102Z,98078.00
2019-04-04T21:07:37.629Z,98082.00
2019-04-04T21:10:07.558Z,98085.00
2019-04-04T21:12:36.577Z,98087.00
2019-04-04T21:15:06.953Z,98097.00
2019-04-04T21:17:36.335Z,98106.00
2019-04-04T21:20:07.349Z,98108.00
2019-04-04T21:22:36.546Z,98110.00
2019-04-04T21:25:07.567Z,98114.00
2019-04-04T21:27:36.989Z,98115.00
2019-04-04T21:30:08.157Z,98116.00
2019-04-04T21:32:37.234Z,98122.00
2019-04-04T21:35:07.438Z,98123.00
2019-04-04T21:37:36.577Z,98125.00
2019-04-04T21:40:05.822Z,98145.00
2019-04-04T21:42:35.376Z,98150.00
2019-04-04T21:45:08.708Z,98145.00
2019-04-04T21:47:37.880Z,98156.00
2019-04-04T21:50:07.926Z,98156.00
2019-04-04T21:52:37.522Z,98149.00
2019-04-04T21:55:07.544Z,98146.00
2019-04-04T21:57:36.669Z,98155.00
2019-04-04T22:00:08.432Z,98156.00
2019-04-04T22:02:38.026Z,98155.00
2019-04-04T22:05:08.430Z,98165.00
2019-04-04T22:07:37.685Z,98159.00
2019-04-04T22:10:10.009Z,98177.00
2019-04-04T22:12:39.485Z,98182.00
2019-04-04T22:15:08.922Z,98185.00
2019-04-04T22:17:38.507Z,98179.00
2019-04-04T22:20:08.194Z,98182.00
2019-04-04T22:22:37.420Z,98176.00
2019-04-04T22:25:10.227Z,98184.00
2019-04-04T22:27:45.979Z,98198.00
2019-04-04T22:30:15.683Z,98197.00
2019-04-04T22:32:44.761Z,98205.00
2019-04-04T22:35:14.209Z,98208.00
2019-04-04T22:37:43.868Z,98197.00
2019-04-04T22:40:13.050Z,98216.00
2019-04-04T22:42:42.620Z,98212.00
2019-04-04T22:45:11.938Z,98210.00
2019-04-04T22:47:41.048Z,98209.00
2019-04-04T22:50:10.863Z,98211.00
2019-04-04T22:52:40.275Z,98218.00
2019-04-04T22:55:09.507Z,98230.00
2019-04-04T22:57:38.781Z,98230.00
2019-04-04T23:00:08.552Z,98224.00
2019-04-04T23:02:37.919Z,98221.00
2019-04-04T23:05:07.889Z,98233.00
2019-04-04T23:07:37.290Z,98253.00
2019-04-04T23:10:11.462Z,98267.00
2019-04-04T23:12:40.796Z,98263.00
2019-04-04T23:15:10.111Z,98263.00
2019-04-04T23:17:39.474Z,98249.00
2019-04-04T23:20:09.544Z,98249.00
2019-04-04T23:22:46.988Z,98249.00
2019-04-04T23:25:10.038Z,98254.00
2019-04-04T23:27:39.373Z,98261.00
2019-04-04T23:30:09.368Z,98260.00
2019-04-04T23:32:38.778Z,98264.00
2019-04-04T23:35:07.931Z,98270.00
2019-04-04T23:37:37.276Z,98273.00
2019-04-04T23:40:06.729Z,98269.00
2019-04-04T23:42:35.980Z,98262.00
2019-04-04T23:45:07.919Z,98264.00
2019-04-04T23:47:43.265Z,98258.00
2019-04-04T23:50:08.180Z,98249.00
2019-04-04T23:52:37.558Z,98245.00
2019-04-04T23:55:07.024Z,98250.00
2019-04-04T23:57:36.475Z,98256.00
